createdAt,value
2022-12-01T00:00:07.885Z,4.32
2022-12-01T00:01:07.897Z,4.30
2022-12-01T00:02:07.968Z,4.30
2022-12-01T00:03:08.011Z,4.30
2022-12-01T00:04:07.930Z,4.32
2022-12-01T00:05:07.943Z,4.33
2022-12-01T00:06:07.947Z,4.31
2022-12-01T00:07:07.956Z,4.31
2022-12-01T00:08:08.021Z,4.30
2022-12-01T00:09:07.981Z,4.32
2022-12-01T00:10:07.992Z,4.31
2022-12-01T00:11:08.001Z,4.31
2022-12-01T00:12:08.007Z,4.32
2022-12-01T00:13:08.020Z,4.32
2022-12-01T00:14:08.027Z,4.31
2022-12-01T00:15:08.036Z,4.33
2022-12-01T00:16:08.049Z,4.30
2022-12-01T00:17:08.049Z,4.29
2022-12-01T00:18:08.059Z,4.28
2022-12-01T00:19:08.074Z,4.28
2022-12-01T00:20:08.078Z,4.27
2022-12-01T00:21:08.081Z,4.28
2022-12-01T00:22:08.104Z,4.28
2022-12-01T00:23:08.094Z,4.24
2022-12-01T00:24:08.100Z,4.24
2022-12-01T00:25:08.107Z,4.24
2022-12-01T00:26:08.112Z,4.25
2022-12-01T00:27:08.122Z,4.27
2022-12-01T00:28:08.129Z,4.29
2022-12-01T00:29:08.151Z,4.28
2022-12-01T00:30:08.147Z,4.30
2022-12-01T00:31:08.166Z,4.32
2022-12-01T00:32:08.278Z,4.32
2022-12-01T00:33:08.187Z,4.33
2022-12-01T00:34:11.198Z,4.34
2022-12-01T00:35:08.212Z,4.34
2022-12-01T00:36:08.223Z,4.37
2022-12-01T00:37:08.233Z,4.35
2022-12-01T00:38:08.249Z,4.35
2022-12-01T00:39:08.262Z,4.33
2022-12-01T00:40:08.267Z,4.36
2022-12-01T00:41:08.280Z,4.33
2022-12-01T00:42:13.006Z,4.33
2022-12-01T00:43:08.303Z,4.35
2022-12-01T00:44:08.312Z,4.35
2022-12-01T00:45:08.318Z,4.36
2022-12-01T00:46:08.444Z,4.35
2022-12-01T00:47:08.332Z,4.33
2022-12-01T00:48:08.342Z,4.34
2022-12-01T00:49:08.355Z,4.34
2022-12-01T00:50:08.361Z,4.35
2022-12-01T00:51:08.368Z,4.35
2022-12-01T00:52:08.373Z,4.32
2022-12-01T00:53:08.389Z,4.30
2022-12-01T00:54:08.393Z,4.29
2022-12-01T00:55:08.412Z,4.31
2022-12-01T00:56:08.422Z,4.31
2022-12-01T00:57:08.431Z,4.32
2022-12-01T00:58:08.433Z,4.33
2022-12-01T00:59:08.439Z,4.34
2022-12-01T01:00:08.454Z,4.34
2022-12-01T01:01:08.482Z,4.33
2022-12-01T01:02:08.528Z,4.31
2022-12-01T01:03:08.485Z,4.33
2022-12-01T01:04:08.502Z,4.32
2022-12-01T01:05:08.564Z,4.33
2022-12-01T01:06:08.525Z,4.32
2022-12-01T01:07:08.535Z,4.32
2022-12-01T01:08:08.641Z,4.32
2022-12-01T01:09:08.560Z,4.29
2022-12-01T01:10:08.578Z,4.29
2022-12-01T01:11:08.587Z,4.26
2022-12-01T01:12:08.599Z,4.25
2022-12-01T01:13:08.603Z,4.26
2022-12-01T01:14:08.612Z,4.27
2022-12-01T01:15:08.621Z,4.30
2022-12-01T01:16:08.673Z,4.32
2022-12-01T01:17:08.665Z,4.31
2022-12-01T01:18:08.661Z,4.30
2022-12-01T01:19:08.674Z,4.31
2022-12-01T01:20:08.690Z,4.31
2022-12-01T01:21:08.696Z,4.28
2022-12-01T01:22:08.710Z,4.29
2022-12-01T01:23:08.717Z,4.29
2022-12-01T01:24:08.723Z,4.29
2022-12-01T01:25:08.727Z,4.28
2022-12-01T01:26:08.742Z,4.23
2022-12-01T01:27:08.746Z,4.21
2022-12-01T01:45:09.272Z,4.28
2022-12-01T01:46:08.983Z,4.26
2022-12-01T01:47:08.956Z,4.28
2022-12-01T01:48:08.961Z,4.29
2022-12-01T01:49:08.977Z,4.29
2022-12-01T01:50:08.988Z,4.32
2022-12-01T01:51:08.995Z,4.30
2022-12-01T01:52:09.011Z,4.31
2022-12-01T01:53:09.023Z,4.32
2022-12-01T01:54:09.038Z,4.34
2022-12-01T01:55:09.037Z,4.33
2022-12-01T01:56:09.056Z,4.32
2022-12-01T01:57:09.068Z,4.33
2022-12-01T01:58:09.085Z,4.32
2022-12-01T01:59:09.098Z,4.33
2022-12-01T02:00:09.109Z,4.33
2022-12-01T02:01:09.201Z,4.33
2022-12-01T02:02:09.206Z,4.32
2022-12-01T02:03:09.150Z,4.31
2022-12-01T02:04:09.157Z,4.31
2022-12-01T02:05:09.162Z,4.32
2022-12-01T02:06:09.184Z,4.31
2022-12-01T02:07:09.184Z,4.33
2022-12-01T02:08:09.228Z,4.31
2022-12-01T02:09:09.217Z,4.30
2022-12-01T02:10:09.233Z,4.32
2022-12-01T02:11:09.247Z,4.32
2022-12-01T02:12:09.248Z,4.32
2022-12-01T02:13:09.259Z,4.31
2022-12-01T02:14:09.274Z,4.31
2022-12-01T02:15:09.281Z,4.31
2022-12-01T02:16:09.296Z,4.32
2022-12-01T02:17:09.333Z,4.31
2022-12-01T02:18:09.320Z,4.33
2022-12-01T02:19:09.332Z,4.32
2022-12-01T02:20:09.344Z,4.33
2022-12-01T02:21:09.354Z,4.32
2022-12-01T02:22:09.354Z,4.33
2022-12-01T02:23:09.372Z,4.32
2022-12-01T02:24:09.379Z,4.33
2022-12-01T02:25:09.386Z,4.32
2022-12-01T02:26:09.402Z,4.32
2022-12-01T02:27:09.411Z,4.32
2022-12-01T02:28:09.415Z,4.29
2022-12-01T02:29:09.430Z,4.26
2022-12-01T02:30:09.447Z,4.27
2022-12-01T02:31:09.541Z,4.28
2022-12-01T02:32:09.471Z,4.28
2022-12-01T02:33:09.486Z,4.28
2022-12-01T02:34:09.502Z,4.27
2022-12-01T02:35:09.513Z,4.30
2022-12-01T02:36:09.528Z,4.28
2022-12-01T02:37:09.542Z,4.27
2022-12-01T02:38:09.548Z,4.30
2022-12-01T02:39:09.556Z,4.28
2022-12-01T02:40:09.570Z,4.29
2022-12-01T02:41:09.582Z,4.27
2022-12-01T02:42:09.598Z,4.25
2022-12-01T02:43:09.603Z,4.24
2022-12-01T02:44:09.614Z,4.23
2022-12-01T02:45:09.615Z,4.27
2022-12-01T02:46:09.699Z,4.24
2022-12-01T02:47:09.636Z,4.21
2022-12-01T02:48:09.649Z,4.22
2022-12-01T02:49:09.654Z,4.21
2022-12-01T02:50:09.667Z,4.19
2022-12-01T02:51:09.679Z,4.17
2022-12-01T02:52:09.685Z,4.13
2022-12-01T02:53:09.698Z,4.13
2022-12-01T02:54:09.714Z,4.15
2022-12-01T02:55:09.720Z,4.14
2022-12-01T02:56:09.725Z,4.11
2022-12-01T02:57:09.741Z,4.11
2022-12-01T02:58:09.745Z,4.11
2022-12-01T02:59:09.761Z,4.11
2022-12-01T03:00:09.768Z,4.10
2022-12-01T03:01:09.801Z,4.12
2022-12-01T03:02:09.810Z,4.12
2022-12-01T03:03:09.807Z,4.11
2022-12-01T03:04:09.812Z,4.13
2022-12-01T03:05:09.821Z,4.13
2022-12-01T03:06:09.828Z,4.09
2022-12-01T03:07:09.834Z,4.03
2022-12-01T03:08:09.886Z,3.97
2022-12-01T03:09:09.855Z,3.97
2022-12-01T03:10:09.860Z,3.95
2022-12-01T03:11:09.866Z,3.95
2022-12-01T03:12:09.884Z,3.98
2022-12-01T03:13:09.888Z,3.98
2022-12-01T03:14:09.905Z,3.98
2022-12-01T03:15:09.907Z,3.96
2022-12-01T03:16:10.029Z,3.97
2022-12-01T03:17:09.928Z,4.00
2022-12-01T03:18:09.935Z,3.99
2022-12-01T03:19:09.939Z,3.98
2022-12-01T03:20:09.948Z,3.97
2022-12-01T03:21:09.953Z,3.95
2022-12-01T03:22:09.966Z,3.93
2022-12-01T03:23:09.974Z,3.92
2022-12-01T03:24:09.989Z,3.91
2022-12-01T03:25:09.996Z,3.92
2022-12-01T03:26:10.009Z,3.94
2022-12-01T03:27:10.023Z,3.94
2022-12-01T03:29:10.049Z,3.99
2022-12-01T03:30:10.058Z,4.04
2022-12-01T03:31:10.178Z,3.99
2022-12-01T03:32:10.083Z,3.99
2022-12-01T03:33:10.089Z,4.01
2022-12-01T03:34:10.099Z,3.99
2022-12-01T03:35:10.109Z,4.00
2022-12-01T03:36:10.126Z,4.03
2022-12-01T03:37:10.120Z,4.01
2022-12-01T03:38:10.138Z,4.02
2022-12-01T03:39:10.145Z,4.02
2022-12-01T03:40:10.151Z,3.99
2022-12-01T03:41:10.167Z,3.99
2022-12-01T03:42:10.183Z,3.97
2022-12-01T03:43:10.197Z,3.97
2022-12-01T03:44:10.205Z,3.96
2022-12-01T03:45:10.220Z,3.98
2022-12-01T03:46:10.310Z,3.98
2022-12-01T03:47:10.248Z,3.97
2022-12-01T03:48:10.256Z,3.99
2022-12-01T03:49:10.271Z,3.99
2022-12-01T03:50:10.282Z,3.98
2022-12-01T03:51:10.296Z,4.00
2022-12-01T03:52:10.311Z,4.01
2022-12-01T03:53:10.325Z,4.01
2022-12-01T03:54:10.334Z,4.01
2022-12-01T03:55:10.348Z,3.98
2022-12-01T03:56:10.358Z,3.98
2022-12-01T03:57:10.373Z,4.00
2022-12-01T03:58:10.394Z,3.99
2022-12-01T03:59:10.397Z,4.00
2022-12-01T04:00:10.411Z,4.02
2022-12-01T04:01:10.423Z,4.02
2022-12-01T04:02:10.495Z,4.01
2022-12-01T04:03:10.460Z,4.01
2022-12-01T04:04:10.450Z,4.01
2022-12-01T04:05:10.457Z,4.01
2022-12-01T04:06:10.472Z,3.99
2022-12-01T04:07:10.478Z,3.98
2022-12-01T04:08:10.561Z,3.97
2022-12-01T04:09:10.491Z,3.95
2022-12-01T04:10:10.495Z,3.97
2022-12-01T04:11:10.503Z,3.98
2022-12-01T04:12:10.518Z,3.97
2022-12-01T04:13:10.529Z,3.97
2022-12-01T04:14:10.531Z,3.97
2022-12-01T04:15:10.537Z,3.95
2022-12-01T04:16:10.616Z,3.95
2022-12-01T04:17:10.554Z,3.93
2022-12-01T04:18:10.570Z,3.91
2022-12-01T04:19:10.585Z,3.89
2022-12-01T04:20:10.602Z,3.90
2022-12-01T04:21:10.606Z,3.92
2022-12-01T04:22:10.614Z,3.89
2022-12-01T04:23:10.628Z,3.89
2022-12-01T04:24:10.633Z,3.89
2022-12-01T04:25:10.639Z,3.88
2022-12-01T04:26:15.556Z,3.89
2022-12-01T04:27:10.662Z,3.89
2022-12-01T04:28:10.676Z,3.89
2022-12-01T04:29:10.692Z,3.93
2022-12-01T04:30:10.710Z,3.93
2022-12-01T04:31:10.763Z,3.94
2022-12-01T04:32:10.743Z,3.95
2022-12-01T04:33:10.754Z,3.94
2022-12-01T04:34:10.771Z,3.95
2022-12-01T04:35:10.787Z,3.94
2022-12-01T04:36:10.803Z,3.94
2022-12-01T04:37:10.809Z,3.94
2022-12-01T04:38:10.825Z,3.95
2022-12-01T04:39:10.843Z,3.94
2022-12-01T04:40:10.857Z,3.93
2022-12-01T04:41:10.863Z,3.95
2022-12-01T04:42:10.878Z,3.95
2022-12-01T04:43:10.896Z,3.95
2022-12-01T04:44:10.910Z,3.94
2022-12-01T04:45:10.918Z,3.95
2022-12-01T04:46:10.984Z,3.95
2022-12-01T04:47:10.939Z,3.95
2022-12-01T04:48:10.946Z,3.94
2022-12-01T04:49:10.950Z,3.94
2022-12-01T04:50:10.957Z,3.95
2022-12-01T04:51:10.962Z,3.95
2022-12-01T04:52:10.984Z,3.98
2022-12-01T04:53:10.984Z,3.98
2022-12-01T04:54:10.991Z,3.98
2022-12-01T04:55:10.998Z,3.98
2022-12-01T04:56:11.005Z,3.94
2022-12-01T04:57:11.012Z,3.91
2022-12-01T04:58:11.026Z,3.90
2022-12-01T04:59:11.034Z,3.87
2022-12-01T05:00:11.051Z,3.87
2022-12-01T05:01:11.171Z,3.85
2022-12-01T05:02:11.122Z,3.85
2022-12-01T05:03:14.974Z,3.87
2022-12-01T05:04:11.096Z,3.89
2022-12-01T05:05:11.109Z,3.91
2022-12-01T05:06:11.118Z,3.90
2022-12-01T05:07:11.128Z,3.87
2022-12-01T05:08:11.138Z,3.85
2022-12-01T05:09:14.335Z,3.78
2022-12-01T05:10:11.154Z,3.76
2022-12-01T05:11:11.160Z,3.73
2022-12-01T05:12:11.175Z,3.73
2022-12-01T05:13:11.190Z,3.72
2022-12-01T05:14:11.206Z,3.73
2022-12-01T05:15:11.218Z,3.76
2022-12-01T05:16:11.325Z,3.77
2022-12-01T05:17:11.242Z,3.78
2022-12-01T05:18:11.297Z,3.82
2022-12-01T05:19:11.266Z,3.83
2022-12-01T05:20:11.274Z,3.84
2022-12-01T05:21:11.281Z,3.87
2022-12-01T05:22:11.287Z,3.86
2022-12-01T05:23:16.462Z,3.85
2022-12-01T05:24:11.307Z,3.83
2022-12-01T05:25:11.321Z,3.84
2022-12-01T05:26:11.334Z,3.83
2022-12-01T05:27:11.340Z,3.85
2022-12-01T05:28:11.347Z,3.86
2022-12-01T05:29:11.362Z,3.88
2022-12-01T05:30:11.371Z,3.86
2022-12-01T05:31:11.451Z,3.88
2022-12-01T05:32:11.397Z,3.88
2022-12-01T05:33:11.402Z,3.86
2022-12-01T05:34:11.413Z,3.87
2022-12-01T05:35:11.418Z,3.86
2022-12-01T05:36:11.426Z,3.87
2022-12-01T05:37:11.443Z,3.86
2022-12-01T05:38:11.452Z,3.87
2022-12-01T05:39:11.466Z,3.90
2022-12-01T05:40:11.478Z,3.90
2022-12-01T05:41:11.494Z,3.92
2022-12-01T05:42:11.512Z,3.89
2022-12-01T05:43:11.529Z,3.87
2022-12-01T05:44:11.546Z,3.85
2022-12-01T05:45:11.553Z,3.82
2022-12-01T05:46:11.615Z,3.83
2022-12-01T05:47:11.586Z,3.83
2022-12-01T05:48:11.602Z,3.84
2022-12-01T05:49:11.617Z,3.84
2022-12-01T05:50:11.622Z,3.85
2022-12-01T05:51:11.641Z,3.86
2022-12-01T05:52:11.658Z,3.88
2022-12-01T05:53:11.674Z,3.90
2022-12-01T05:54:11.686Z,3.92
2022-12-01T05:55:11.705Z,3.92
2022-12-01T05:56:11.720Z,3.91
2022-12-01T05:57:11.736Z,3.92
2022-12-01T05:58:11.761Z,3.91
2022-12-01T05:59:11.758Z,3.89
2022-12-01T06:00:11.775Z,3.89
2022-12-01T06:01:11.791Z,3.89
2022-12-01T06:02:11.861Z,3.86
2022-12-01T06:03:11.818Z,3.87
2022-12-01T06:04:11.898Z,3.86
2022-12-01T06:05:11.849Z,3.87
2022-12-01T06:06:11.867Z,3.88
2022-12-01T06:07:11.882Z,3.87
2022-12-01T06:08:11.900Z,3.89
2022-12-01T06:09:11.920Z,3.89
2022-12-01T06:10:11.937Z,3.90
2022-12-01T06:11:11.958Z,3.85
2022-12-01T06:12:11.963Z,3.83
2022-12-01T06:13:11.979Z,3.78
2022-12-01T06:14:11.999Z,3.75
2022-12-01T06:15:12.014Z,3.73
2022-12-01T06:16:12.074Z,3.73
2022-12-01T06:17:12.041Z,3.72
2022-12-01T06:18:12.056Z,3.69
2022-12-01T06:19:12.073Z,3.69
2022-12-01T06:20:12.092Z,3.70
2022-12-01T06:21:12.108Z,3.70
2022-12-01T06:22:12.126Z,3.72
2022-12-01T06:23:12.143Z,3.71
2022-12-01T06:24:12.148Z,3.72
2022-12-01T06:25:12.167Z,3.69
2022-12-01T06:26:12.175Z,3.67
2022-12-01T06:27:12.191Z,3.67
2022-12-01T06:28:12.196Z,3.66
2022-12-01T06:29:12.204Z,3.62
2022-12-01T06:30:12.208Z,3.56
2022-12-01T06:31:12.214Z,3.50
2022-12-01T06:32:12.267Z,3.49
2022-12-01T06:33:12.251Z,3.48
2022-12-01T06:34:12.268Z,3.50
2022-12-01T06:35:12.274Z,3.53
2022-12-01T06:36:12.277Z,3.58
2022-12-01T06:37:12.295Z,3.61
2022-12-01T06:38:12.301Z,3.64
2022-12-01T06:39:12.318Z,3.67
2022-12-01T06:40:12.323Z,3.69
2022-12-01T06:41:12.329Z,3.68
2022-12-01T06:42:12.353Z,3.70
2022-12-01T06:43:12.353Z,3.71
2022-12-01T06:44:12.359Z,3.75
2022-12-01T06:45:12.379Z,3.75
2022-12-01T06:46:12.472Z,3.74
2022-12-01T06:47:12.399Z,3.75
2022-12-01T06:48:12.404Z,3.72
2022-12-01T06:49:12.422Z,3.69
2022-12-01T06:50:12.438Z,3.66
2022-12-01T06:51:12.442Z,3.63
2022-12-01T06:52:12.451Z,3.64
2022-12-01T06:53:12.468Z,3.66
2022-12-01T06:54:12.481Z,3.67
2022-12-01T06:55:12.497Z,3.66
2022-12-01T06:56:12.507Z,3.67
2022-12-01T06:57:12.509Z,3.68
2022-12-01T06:58:12.518Z,3.70
2022-12-01T06:59:12.525Z,3.69
2022-12-01T07:00:12.541Z,3.68
2022-12-01T07:01:12.597Z,3.67
2022-12-01T07:02:12.572Z,3.67
2022-12-01T07:03:12.577Z,3.69
2022-12-01T07:04:12.588Z,3.66
2022-12-01T07:05:12.605Z,3.67
2022-12-01T07:06:12.613Z,3.66
2022-12-01T07:07:12.630Z,3.68
2022-12-01T07:08:12.676Z,3.67
2022-12-01T07:09:12.656Z,3.67
2022-12-01T07:10:12.664Z,3.71
2022-12-01T07:11:12.686Z,3.72
2022-12-01T07:12:12.694Z,3.75
2022-12-01T07:13:12.711Z,3.74
2022-12-01T07:14:12.724Z,3.73
2022-12-01T07:15:12.740Z,3.72
2022-12-01T07:16:12.805Z,3.74
2022-12-01T07:17:12.758Z,3.75
2022-12-01T07:18:12.766Z,3.73
2022-12-01T07:19:12.783Z,3.72
2022-12-01T07:20:12.801Z,3.69
2022-12-01T07:21:12.815Z,3.71
2022-12-01T07:22:12.828Z,3.68
2022-12-01T07:23:12.835Z,3.65
2022-12-01T07:24:12.846Z,3.62
2022-12-01T07:25:12.860Z,3.61
2022-12-01T07:26:12.866Z,3.55
2022-12-01T07:27:12.884Z,3.43
2022-12-01T07:28:12.890Z,3.37
2022-12-01T07:29:12.912Z,3.34
2022-12-01T07:30:12.926Z,3.33
2022-12-01T07:31:12.969Z,3.34
2022-12-01T07:32:12.958Z,3.31
2022-12-01T07:33:12.970Z,3.35
2022-12-01T07:34:12.980Z,3.37
2022-12-01T07:35:12.985Z,3.38
2022-12-01T07:36:12.991Z,3.40
2022-12-01T07:37:13.015Z,3.43
2022-12-01T07:38:15.544Z,3.43
2022-12-01T07:39:13.045Z,3.46
2022-12-01T07:40:13.052Z,3.42
2022-12-01T07:41:13.054Z,3.41
2022-12-01T07:42:13.075Z,3.39
2022-12-01T07:43:13.088Z,3.37
2022-12-01T07:44:13.096Z,3.33
2022-12-01T07:45:13.118Z,3.32
2022-12-01T07:46:17.340Z,3.31
2022-12-01T07:47:13.128Z,3.32
2022-12-01T07:48:13.142Z,3.33
2022-12-01T07:49:13.157Z,3.37
2022-12-01T07:50:13.171Z,3.40
2022-12-01T07:51:13.186Z,3.44
2022-12-01T07:52:13.200Z,3.49
2022-12-01T07:53:13.207Z,3.53
2022-12-01T07:54:13.216Z,3.56
2022-12-01T07:55:13.233Z,3.57
2022-12-01T07:56:13.242Z,3.57
2022-12-01T07:57:13.248Z,3.59
2022-12-01T07:58:13.258Z,3.59
2022-12-01T07:59:13.269Z,3.61
2022-12-01T08:00:13.278Z,3.61
2022-12-01T08:01:13.364Z,3.63
2022-12-01T08:02:13.409Z,3.63
2022-12-01T08:03:13.447Z,3.63
2022-12-01T08:04:13.327Z,3.61
2022-12-01T08:05:13.340Z,3.59
2022-12-01T08:06:13.357Z,3.61
2022-12-01T08:07:13.373Z,3.63
2022-12-01T08:08:13.506Z,3.65
2022-12-01T08:09:13.403Z,3.67
2022-12-01T08:10:13.423Z,3.67
2022-12-01T08:11:13.440Z,3.69
2022-12-01T08:12:13.443Z,3.71
2022-12-01T08:13:17.224Z,3.77
2022-12-01T08:14:13.477Z,3.80
2022-12-01T08:15:13.489Z,3.83
2022-12-01T08:16:13.616Z,3.86
2022-12-01T08:17:13.506Z,3.88
2022-12-01T08:18:13.512Z,3.86
2022-12-01T08:19:13.534Z,3.84
2022-12-01T08:20:13.541Z,3.83
2022-12-01T08:21:13.558Z,3.73
2022-12-01T08:22:13.574Z,3.69
2022-12-01T08:23:13.593Z,3.66
2022-12-01T08:24:13.598Z,3.60
2022-12-01T08:25:13.617Z,3.55
2022-12-01T08:26:13.623Z,3.54
2022-12-01T08:27:13.629Z,3.54
2022-12-01T08:28:13.647Z,3.53
2022-12-01T08:29:18.639Z,3.51
2022-12-01T08:30:13.687Z,3.45
2022-12-01T08:31:13.794Z,3.40
2022-12-01T08:32:13.712Z,3.41
2022-12-01T08:33:13.720Z,3.41
2022-12-01T08:34:13.726Z,3.42
2022-12-01T08:35:13.733Z,3.41
2022-12-01T08:36:13.736Z,3.42
2022-12-01T08:37:13.751Z,3.39
2022-12-01T08:38:13.750Z,3.33
2022-12-01T08:39:13.762Z,3.30
2022-12-01T08:40:13.768Z,3.24
2022-12-01T08:41:13.779Z,3.17
2022-12-01T08:42:13.797Z,3.14
2022-12-01T08:43:34.645Z,3.14
2022-12-01T08:44:13.882Z,3.18
2022-12-01T08:45:13.842Z,3.22
2022-12-01T08:46:13.894Z,3.25
2022-12-01T08:47:17.208Z,3.29
2022-12-01T08:48:13.871Z,3.34
2022-12-01T08:49:13.883Z,3.37
2022-12-01T08:50:13.900Z,3.39
2022-12-01T08:51:13.909Z,3.36
2022-12-01T08:52:13.925Z,3.35
2022-12-01T08:53:13.936Z,3.34
2022-12-01T08:54:13.942Z,3.34
2022-12-01T08:55:14.131Z,3.35
2022-12-01T08:56:13.957Z,3.37
2022-12-01T08:57:13.974Z,3.39
2022-12-01T08:58:13.986Z,3.36
2022-12-01T08:59:14.004Z,3.35
2022-12-01T09:00:14.187Z,3.42
2022-12-01T09:01:14.029Z,3.45
2022-12-01T09:02:14.081Z,3.48
2022-12-01T09:03:14.085Z,3.53
2022-12-01T09:04:14.063Z,3.57
2022-12-01T09:05:14.228Z,3.63
2022-12-01T09:06:14.106Z,3.67
2022-12-01T09:07:14.107Z,3.71
2022-12-01T09:08:14.208Z,3.74
2022-12-01T09:09:14.139Z,3.76
2022-12-01T09:10:14.176Z,3.81
2022-12-01T09:11:14.166Z,3.77
2022-12-01T09:12:14.171Z,3.73
2022-12-01T09:13:14.179Z,3.69
2022-12-01T09:14:14.199Z,3.69
2022-12-01T09:15:14.276Z,3.69
2022-12-01T09:16:14.273Z,3.74
2022-12-01T09:17:14.249Z,3.78
2022-12-01T09:18:14.239Z,3.74
2022-12-01T09:19:16.847Z,3.75
2022-12-01T09:20:14.320Z,3.70
2022-12-01T09:21:14.282Z,3.67
2022-12-01T09:22:14.296Z,3.62
2022-12-01T09:23:14.309Z,3.60
2022-12-01T09:24:14.322Z,3.67
2022-12-01T09:25:14.351Z,3.66
2022-12-01T09:26:14.342Z,3.68
2022-12-01T09:27:14.358Z,3.67
2022-12-01T09:28:14.360Z,3.67
2022-12-01T09:29:14.365Z,3.66
2022-12-01T09:30:14.384Z,3.66
2022-12-01T09:31:14.431Z,3.69
2022-12-01T09:32:14.418Z,3.74
2022-12-01T09:33:14.423Z,3.78
2022-12-01T09:34:14.441Z,3.75
2022-12-01T09:35:14.447Z,3.76
2022-12-01T09:36:14.457Z,3.77
2022-12-01T09:37:14.467Z,3.80
2022-12-01T09:38:14.490Z,3.83
2022-12-01T09:39:14.500Z,3.89
2022-12-01T09:40:14.522Z,3.91
2022-12-01T09:41:15.368Z,3.94
2022-12-01T09:42:14.547Z,3.95
2022-12-01T09:43:14.566Z,3.98
2022-12-01T09:44:14.586Z,4.03
2022-12-01T09:45:14.605Z,4.07
2022-12-01T09:46:14.672Z,4.13
2022-12-01T09:47:14.633Z,4.19
2022-12-01T09:48:14.647Z,4.20
2022-12-01T09:49:14.651Z,4.26
2022-12-01T09:50:14.671Z,4.30
2022-12-01T09:51:14.677Z,4.32
2022-12-01T09:52:14.686Z,4.27
2022-12-01T09:53:14.688Z,4.19
2022-12-01T09:54:14.704Z,4.12
2022-12-01T09:55:14.711Z,4.07
2022-12-01T09:56:14.720Z,4.03
2022-12-01T09:57:14.727Z,4.00
2022-12-01T09:58:14.733Z,4.02
2022-12-01T09:59:14.742Z,3.99
2022-12-01T10:00:14.750Z,3.91
2022-12-01T10:01:14.770Z,3.89
2022-12-01T10:02:14.816Z,3.84
2022-12-01T10:03:14.776Z,3.80
2022-12-01T10:04:14.784Z,3.77
2022-12-01T10:05:14.814Z,3.68
2022-12-01T10:07:14.808Z,3.57
2022-12-01T10:08:14.812Z,3.54
2022-12-01T10:09:14.817Z,3.57
2022-12-01T10:10:14.823Z,3.56
2022-12-01T10:11:14.829Z,3.55
2022-12-01T10:12:14.866Z,3.55
2022-12-01T10:13:14.848Z,3.50
2022-12-01T10:14:19.374Z,3.46
2022-12-01T10:15:14.862Z,3.43
2022-12-01T10:16:14.945Z,3.45
2022-12-01T10:17:14.880Z,3.51
2022-12-01T10:18:14.884Z,3.57
2022-12-01T10:19:14.899Z,3.60
2022-12-01T10:20:14.902Z,3.66
2022-12-01T10:21:14.909Z,3.70
2022-12-01T10:22:14.916Z,3.73
2022-12-01T10:23:14.922Z,3.69
2022-12-01T10:24:14.929Z,3.64
2022-12-01T10:25:14.933Z,3.55
2022-12-01T10:26:14.938Z,3.50
2022-12-01T10:27:14.944Z,3.52
2022-12-01T10:28:14.950Z,3.48
2022-12-01T10:29:14.969Z,3.53
2022-12-01T10:30:14.967Z,3.56
2022-12-01T10:31:15.053Z,3.55
2022-12-01T10:32:14.984Z,3.50
2022-12-01T10:33:14.987Z,3.47
2022-12-01T10:34:14.991Z,3.50
2022-12-01T10:35:14.998Z,3.56
2022-12-01T10:36:15.007Z,3.61
2022-12-01T10:37:15.026Z,3.60
2022-12-01T10:38:15.017Z,3.58
2022-12-01T10:39:15.023Z,3.49
2022-12-01T10:40:15.029Z,3.45
2022-12-01T10:41:15.042Z,3.40
2022-12-01T10:42:15.040Z,3.36
2022-12-01T10:43:15.051Z,3.34
2022-12-01T10:44:15.053Z,3.35
2022-12-01T10:45:15.057Z,3.37
2022-12-01T10:46:15.105Z,3.44
2022-12-01T10:47:15.071Z,3.45
2022-12-01T10:48:15.074Z,3.47
2022-12-01T10:49:15.080Z,3.47
2022-12-01T10:50:15.086Z,3.49
2022-12-01T10:51:15.095Z,3.53
2022-12-01T10:52:15.097Z,3.53
2022-12-01T10:53:15.103Z,3.49
2022-12-01T10:54:15.113Z,3.47
2022-12-01T10:55:15.121Z,3.45
2022-12-01T10:56:15.126Z,3.42
2022-12-01T10:57:15.139Z,3.39
2022-12-01T10:58:15.152Z,3.28
2022-12-01T10:59:15.154Z,3.25
2022-12-01T11:00:25.608Z,3.24
2022-12-01T11:01:15.239Z,3.28
2022-12-01T11:02:15.419Z,3.32
2022-12-01T11:03:19.922Z,3.38
2022-12-01T11:04:15.197Z,3.39
2022-12-01T11:05:15.199Z,3.40
2022-12-01T11:06:15.205Z,3.38
2022-12-01T11:07:15.213Z,3.36
2022-12-01T11:08:15.218Z,3.32
2022-12-01T11:09:15.223Z,3.30
2022-12-01T11:10:15.311Z,3.27
2022-12-01T11:11:15.237Z,3.26
2022-12-01T11:12:15.246Z,3.28
2022-12-01T11:13:15.249Z,3.29
2022-12-01T11:14:15.262Z,3.26
2022-12-01T11:15:15.263Z,3.23
2022-12-01T11:16:15.289Z,3.18
2022-12-01T11:17:15.278Z,3.13
2022-12-01T11:18:15.287Z,3.11
2022-12-01T11:19:15.299Z,3.09
2022-12-01T11:20:15.368Z,3.09
2022-12-01T11:21:15.307Z,3.11
2022-12-01T11:22:15.315Z,3.19
2022-12-01T11:23:15.328Z,3.19
2022-12-01T11:24:15.330Z,3.23
2022-12-01T11:25:15.336Z,3.27
2022-12-01T11:26:15.340Z,3.27
2022-12-01T11:27:15.346Z,3.27
2022-12-01T11:28:15.354Z,3.30
2022-12-01T11:29:15.360Z,3.22
2022-12-01T11:30:15.396Z,3.16
2022-12-01T11:31:15.403Z,3.18
2022-12-01T11:32:15.418Z,3.20
2022-12-01T11:33:15.384Z,3.23
2022-12-01T11:34:15.392Z,3.26
2022-12-01T11:35:15.397Z,3.28
2022-12-01T11:36:16.311Z,3.24
2022-12-01T11:37:15.412Z,3.20
2022-12-01T11:39:15.420Z,3.16
2022-12-01T11:40:15.439Z,3.18
2022-12-01T11:41:15.435Z,3.24
2022-12-01T11:42:15.439Z,3.24
2022-12-01T11:43:15.446Z,3.30
2022-12-01T11:44:35.561Z,3.32
2022-12-01T11:45:15.457Z,3.34
2022-12-01T11:46:15.502Z,3.35
2022-12-01T11:47:22.981Z,3.39
2022-12-01T11:48:15.477Z,3.42
2022-12-01T11:49:15.484Z,3.45
2022-12-01T11:50:15.495Z,3.40
2022-12-01T11:51:15.499Z,3.34
2022-12-01T11:52:15.515Z,3.29
2022-12-01T11:53:15.518Z,3.28
2022-12-01T11:54:15.528Z,3.20
2022-12-01T11:55:15.535Z,3.22
2022-12-01T11:56:15.552Z,3.15
2022-12-01T11:57:33.525Z,3.16
2022-12-01T11:58:15.594Z,3.17
2022-12-01T11:59:15.567Z,3.16
2022-12-01T12:00:15.677Z,3.15
2022-12-01T12:01:20.481Z,3.20
2022-12-01T12:02:15.637Z,3.19
2022-12-01T12:03:15.642Z,3.18
2022-12-01T12:04:15.608Z,3.19
2022-12-01T12:05:15.611Z,3.18
2022-12-01T12:06:39.313Z,3.14
2022-12-01T12:07:15.623Z,3.13
2022-12-01T12:08:15.637Z,3.09
2022-12-01T12:09:15.702Z,3.01
2022-12-01T12:10:15.651Z,2.90
2022-12-01T12:11:15.656Z,2.91
2022-12-01T12:12:15.667Z,2.92
2022-12-01T12:13:15.675Z,2.99
2022-12-01T12:14:15.677Z,3.03
2022-12-01T12:15:15.682Z,3.05
2022-12-01T12:16:15.689Z,3.05
2022-12-01T12:17:15.729Z,3.03
2022-12-01T12:18:15.765Z,3.03
2022-12-01T12:19:15.718Z,3.08
2022-12-01T12:20:16.080Z,3.11
2022-12-01T12:21:15.734Z,3.09
2022-12-01T12:22:15.736Z,3.08
2022-12-01T12:23:15.746Z,3.04
2022-12-01T12:24:15.756Z,3.08
2022-12-01T12:25:15.763Z,3.09
2022-12-01T12:26:15.768Z,3.10
2022-12-01T12:27:15.782Z,3.10
2022-12-01T12:28:15.786Z,3.12
2022-12-01T12:29:15.797Z,3.14
2022-12-01T12:30:15.801Z,3.18
2022-12-01T12:31:15.868Z,3.17
2022-12-01T12:32:15.816Z,3.16
2022-12-01T12:33:15.832Z,3.18
2022-12-01T12:34:15.836Z,3.19
2022-12-01T12:35:15.843Z,3.20
2022-12-01T12:36:15.848Z,3.23
2022-12-01T12:37:15.859Z,3.16
2022-12-01T12:38:15.865Z,3.13
2022-12-01T12:39:16.860Z,3.13
2022-12-01T12:40:15.879Z,3.14
2022-12-01T12:41:15.887Z,3.17
2022-12-01T12:42:15.891Z,3.13
2022-12-01T12:43:15.904Z,3.09
2022-12-01T12:44:15.905Z,2.96
2022-12-01T12:45:15.912Z,2.83
2022-12-01T12:46:15.959Z,2.75
2022-12-01T12:47:15.924Z,2.73
2022-12-01T12:48:15.929Z,2.69
2022-12-01T12:49:20.349Z,2.73
2022-12-01T12:50:16.010Z,2.79
2022-12-01T12:51:15.952Z,2.84
2022-12-01T12:52:15.956Z,2.90
2022-12-01T12:53:15.963Z,2.94
2022-12-01T12:54:16.040Z,2.94
2022-12-01T12:55:15.975Z,2.98
2022-12-01T12:56:15.987Z,3.00
2022-12-01T12:57:15.988Z,3.01
2022-12-01T12:58:16.045Z,3.00
2022-12-01T12:59:16.001Z,2.97
2022-12-01T13:00:16.090Z,2.97
2022-12-01T13:01:16.106Z,2.94
2022-12-01T13:02:16.136Z,2.93
2022-12-01T13:03:16.028Z,2.93
2022-12-01T13:04:16.030Z,2.95
2022-12-01T13:05:16.043Z,2.94
2022-12-01T13:06:16.043Z,2.97
2022-12-01T13:07:16.049Z,3.00
2022-12-01T13:08:16.055Z,3.00
2022-12-01T13:09:16.062Z,3.01
2022-12-01T13:10:16.206Z,3.02
2022-12-01T13:11:16.075Z,3.05
2022-12-01T13:12:16.096Z,3.06
2022-12-01T13:13:16.086Z,3.03
2022-12-01T13:14:16.097Z,3.02
2022-12-01T13:15:16.108Z,2.97
2022-12-01T13:16:16.124Z,2.91
2022-12-01T13:17:16.117Z,2.85
2022-12-01T13:18:16.119Z,2.85
2022-12-01T13:19:16.127Z,2.84
2022-12-01T13:20:16.134Z,2.84
2022-12-01T13:21:16.169Z,2.85
2022-12-01T13:22:16.188Z,2.86
2022-12-01T13:23:16.152Z,2.81
2022-12-01T13:24:19.898Z,2.77
2022-12-01T13:25:16.166Z,2.76
2022-12-01T13:26:16.173Z,2.76
2022-12-01T13:27:16.179Z,2.77
2022-12-01T13:28:16.183Z,2.79
2022-12-01T13:29:16.191Z,2.83
2022-12-01T13:30:16.197Z,2.85
2022-12-01T13:31:16.278Z,2.88
2022-12-01T13:32:16.210Z,2.92
2022-12-01T13:33:16.214Z,2.92
2022-12-01T13:34:16.223Z,2.96
2022-12-01T13:35:16.231Z,3.00
2022-12-01T13:36:44.948Z,2.98
2022-12-01T13:37:16.237Z,2.95
2022-12-01T13:38:16.243Z,2.95